createdAt,value
2019-02-05T00:02:20.837Z,12.10
2019-02-05T00:04:51.551Z,11.60
2019-02-05T00:07:22.185Z,12.47
2019-02-05T00:09:53.113Z,11.07
2019-02-05T00:12:23.693Z,12.30
2019-02-05T00:14:55.548Z,10.90
2019-02-05T00:17:26.254Z,10.47
2019-02-05T00:19:57.025Z,11.53
2019-02-05T00:22:27.990Z,11.03
2019-02-05T00:24:58.725Z,10.53
2019-02-05T00:27:29.500Z,10.80
2019-02-05T00:30:00.197Z,10.93
2019-02-05T00:32:30.952Z,11.37
2019-02-05T00:35:02.203Z,10.77
2019-02-05T00:37:32.790Z,10.10
2019-02-05T00:40:03.979Z,10.37
2019-02-05T00:42:34.564Z,11.50
2019-02-05T00:45:08.666Z,10.50
2019-02-05T00:47:39.702Z,10.20
2019-02-05T00:50:11.425Z,9.63
2019-02-05T00:52:42.145Z,10.40
2019-02-05T00:55:13.069Z,11.07
2019-02-05T00:57:43.773Z,10.67
2019-02-05T01:00:20.933Z,10.20
2019-02-05T01:02:51.996Z,11.53
2019-02-05T01:05:22.683Z,11.30
2019-02-05T01:07:53.825Z,11.97
2019-02-05T01:10:25.361Z,10.30
2019-02-05T01:12:57.495Z,12.47
2019-02-05T01:15:28.231Z,11.67
2019-02-05T01:17:58.841Z,11.73
2019-02-05T01:20:29.717Z,11.60
2019-02-05T01:23:00.577Z,12.83
2019-02-05T01:25:31.766Z,12.07
2019-02-05T01:28:02.777Z,12.07
2019-02-05T01:30:33.363Z,11.47
2019-02-05T01:33:04.324Z,13.10
2019-02-05T01:35:35.085Z,11.30
2019-02-05T01:38:05.830Z,11.27
2019-02-05T01:40:36.511Z,12.83
2019-02-05T01:43:07.066Z,12.00
2019-02-05T01:45:37.753Z,13.30
2019-02-05T01:48:08.485Z,13.17
2019-02-05T01:50:39.111Z,12.13
2019-02-05T01:53:09.853Z,12.00
2019-02-05T01:55:40.594Z,12.63
2019-02-05T01:58:12.390Z,14.17
2019-02-05T02:00:43.560Z,15.03
2019-02-05T02:03:14.213Z,9.63
2019-02-05T02:05:45.164Z,12.87
2019-02-05T02:08:16.004Z,14.00
2019-02-05T02:10:46.662Z,13.07
2019-02-05T02:13:17.339Z,14.40
2019-02-05T02:15:48.075Z,12.07
2019-02-05T02:18:19.203Z,13.80
2019-02-05T02:20:50.011Z,11.70
2019-02-05T02:23:20.589Z,14.87
2019-02-05T02:25:51.314Z,16.23
2019-02-05T02:28:22.477Z,12.57
2019-02-05T02:30:53.169Z,12.23
2019-02-05T02:33:23.807Z,15.87
2019-02-05T02:35:54.511Z,13.23
2019-02-05T02:38:25.238Z,12.53
2019-02-05T02:40:55.823Z,13.73
2019-02-05T02:43:26.516Z,12.80
2019-02-05T02:45:57.619Z,14.00
2019-02-05T02:48:28.195Z,13.00
2019-02-05T02:50:58.758Z,11.50
2019-02-05T02:53:29.441Z,13.30
2019-02-05T02:56:00.475Z,14.37
2019-02-05T02:58:31.274Z,13.73
2019-02-05T03:01:01.919Z,15.40
2019-02-05T03:03:32.675Z,13.27
2019-02-05T03:06:03.411Z,15.50
2019-02-05T03:08:34.326Z,16.27
2019-02-05T03:11:05.483Z,15.53
2019-02-05T03:13:36.663Z,15.67
2019-02-05T03:16:07.319Z,17.73
2019-02-05T03:18:38.062Z,15.10
2019-02-05T03:21:08.757Z,16.00
2019-02-05T03:23:39.599Z,17.70
2019-02-05T03:26:10.507Z,15.23
2019-02-05T03:28:41.548Z,15.30
2019-02-05T03:31:12.413Z,15.47
2019-02-05T03:33:43.218Z,11.07
2019-02-05T03:36:14.058Z,18.20
2019-02-05T03:38:44.955Z,15.97
2019-02-05T03:41:15.775Z,14.20
2019-02-05T03:43:47.074Z,18.17
2019-02-05T03:46:19.119Z,14.30
2019-02-05T03:48:50.669Z,15.33
2019-02-05T03:51:42.868Z,17.13
2019-02-05T03:54:52.382Z,17.73
2019-02-05T03:57:57.573Z,14.17
2019-02-05T04:00:57.478Z,17.67
2019-02-05T04:04:05.334Z,16.77
2019-02-05T04:07:03.948Z,15.40
2019-02-05T04:10:34.099Z,16.83
2019-02-05T04:13:44.379Z,15.73
2019-02-05T04:17:17.501Z,16.37
2019-02-05T04:20:12.869Z,16.83
2019-02-05T04:23:14.437Z,16.40
2019-02-05T04:26:25.569Z,15.97
2019-02-05T04:29:18.786Z,15.40
2019-02-05T04:32:26.108Z,17.00
2019-02-05T04:35:33.757Z,16.50
2019-02-05T04:38:48.129Z,17.10
2019-02-05T04:41:41.878Z,16.87
2019-02-05T04:44:50.415Z,17.93
2019-02-05T04:47:40.139Z,16.70
2019-02-05T04:50:26.281Z,16.20
2019-02-05T04:53:33.066Z,19.30
2019-02-05T04:56:57.206Z,16.83
2019-02-05T05:00:06.068Z,18.73
2019-02-05T05:03:00.256Z,16.37
2019-02-05T05:05:48.734Z,15.23
2019-02-05T05:08:53.944Z,16.80
2019-02-05T05:11:24.814Z,16.10
2019-02-05T05:13:55.487Z,16.00
2019-02-05T05:16:26.263Z,17.80
2019-02-05T05:18:57.029Z,16.40
2019-02-05T05:21:27.699Z,17.70
2019-02-05T05:23:58.867Z,17.70
2019-02-05T05:26:29.768Z,14.27
2019-02-05T05:29:00.573Z,17.10
2019-02-05T05:31:31.721Z,16.33
2019-02-05T05:34:02.472Z,18.47
2019-02-05T05:36:33.237Z,18.57
2019-02-05T05:39:06.124Z,18.60
2019-02-05T05:41:36.947Z,19.23
2019-02-05T05:44:09.578Z,19.77
2019-02-05T05:46:40.497Z,19.27
2019-02-05T05:49:11.230Z,18.43
2019-02-05T05:51:42.272Z,19.00
2019-02-05T05:54:13.003Z,19.67
2019-02-05T05:56:43.819Z,18.20
2019-02-05T05:59:14.439Z,18.50
2019-02-05T06:01:45.422Z,18.53
2019-02-05T06:04:16.587Z,18.80
2019-02-05T06:06:47.664Z,18.53
2019-02-05T06:09:18.421Z,15.40
2019-02-05T06:11:49.249Z,16.27
2019-02-05T06:14:19.887Z,14.73
2019-02-05T06:16:50.828Z,11.13
2019-02-05T06:19:21.891Z,17.27
2019-02-05T06:21:52.570Z,17.13
2019-02-05T06:24:23.487Z,18.47
2019-02-05T06:26:54.695Z,19.03
2019-02-05T06:29:26.021Z,20.00
2019-02-05T06:31:57.495Z,18.73
2019-02-05T06:34:28.911Z,16.57
2019-02-05T06:37:00.329Z,17.83
2019-02-05T06:39:30.944Z,19.97
2019-02-05T06:42:01.638Z,20.03
2019-02-05T06:44:32.445Z,19.63
2019-02-05T06:47:03.142Z,20.17
2019-02-05T06:49:33.888Z,19.27
2019-02-05T06:52:04.727Z,17.23
2019-02-05T06:54:35.433Z,19.60
2019-02-05T06:57:07.380Z,16.40
2019-02-05T06:59:37.958Z,20.60
2019-02-05T07:02:10.833Z,21.87
2019-02-05T07:04:41.862Z,18.77
2019-02-05T07:07:12.715Z,23.10
2019-02-05T07:09:43.399Z,19.70
2019-02-05T07:12:14.236Z,21.17
2019-02-05T07:14:44.916Z,18.67
2019-02-05T07:17:15.703Z,19.03
2019-02-05T07:19:46.453Z,18.27
2019-02-05T07:22:17.309Z,22.23
2019-02-05T07:24:48.490Z,18.50
2019-02-05T07:27:19.271Z,20.60
2019-02-05T07:29:50.380Z,18.97
2019-02-05T07:32:21.055Z,18.90
2019-02-05T07:34:51.739Z,19.53
2019-02-05T07:37:22.485Z,21.20
2019-02-05T07:39:53.245Z,19.53
2019-02-05T07:42:23.914Z,21.47
2019-02-05T07:44:57.189Z,23.07
2019-02-05T07:47:28.529Z,20.53
2019-02-05T07:49:59.537Z,20.57
2019-02-05T07:52:33.229Z,18.80
2019-02-05T07:55:08.323Z,21.50
2019-02-05T07:57:39.084Z,19.87
2019-02-05T08:00:16.330Z,21.10
2019-02-05T08:02:47.310Z,15.90
2019-02-05T08:05:20.103Z,17.43
2019-02-05T08:07:51.277Z,19.93
2019-02-05T08:10:22.683Z,20.27
2019-02-05T08:12:53.938Z,19.37
2019-02-05T08:15:27.218Z,18.20
2019-02-05T08:17:59.507Z,18.70
2019-02-05T08:20:30.429Z,20.23
2019-02-05T08:23:01.158Z,19.50
2019-02-05T08:25:31.919Z,19.07
2019-02-05T08:28:03.133Z,18.57
2019-02-05T08:30:39.797Z,20.77
2019-02-05T08:33:10.594Z,17.00
2019-02-05T08:35:41.620Z,19.77
2019-02-05T08:38:12.694Z,18.50
2019-02-05T08:40:43.799Z,18.27
2019-02-05T08:43:14.469Z,18.50
2019-02-05T08:45:55.956Z,18.60
2019-02-05T08:48:17.606Z,19.47
2019-02-05T08:50:49.370Z,20.83
2019-02-05T08:53:20.060Z,21.10
2019-02-05T08:55:52.132Z,18.53
2019-02-05T08:58:30.714Z,22.17
2019-02-05T09:00:55.616Z,18.67
2019-02-05T09:03:26.501Z,20.20
2019-02-05T09:05:57.624Z,20.53
2019-02-05T09:08:28.419Z,22.53
2019-02-05T09:10:59.200Z,20.37
2019-02-05T09:13:29.942Z,20.37
2019-02-05T09:16:00.755Z,20.53
2019-02-05T09:18:31.517Z,22.30
2019-02-05T09:21:02.275Z,21.27
2019-02-05T09:23:33.336Z,20.53
2019-02-05T09:26:04.102Z,23.53
2019-02-05T09:28:34.736Z,21.63
2019-02-05T09:31:05.578Z,18.40
2019-02-05T09:33:36.203Z,22.77
2019-02-05T09:36:06.994Z,24.30
2019-02-05T09:38:38.024Z,20.87
2019-02-05T09:41:08.785Z,22.63
2019-02-05T09:43:39.586Z,23.40
2019-02-05T09:46:10.346Z,23.07
2019-02-05T09:48:41.080Z,21.67
2019-02-05T09:51:13.259Z,20.13
2019-02-05T09:53:44.326Z,21.93
2019-02-05T09:56:15.121Z,23.60
2019-02-05T09:58:45.786Z,23.07
2019-02-05T10:01:16.561Z,24.70
2019-02-05T10:03:47.222Z,23.23
2019-02-05T10:06:18.050Z,22.37
2019-02-05T10:08:48.882Z,24.27
2019-02-05T10:11:20.135Z,24.03
2019-02-05T10:13:50.907Z,23.07
2019-02-05T10:16:21.755Z,21.40
2019-02-05T10:18:52.846Z,22.17
2019-02-05T10:21:23.871Z,24.13
2019-02-05T10:23:54.475Z,22.70
2019-02-05T10:26:26.030Z,23.23
2019-02-05T10:28:56.901Z,23.77
2019-02-05T10:31:27.724Z,21.97
2019-02-05T10:33:58.398Z,22.93
2019-02-05T10:36:29.761Z,23.30
2019-02-05T10:39:01.725Z,24.73
2019-02-05T10:41:33.974Z,22.57
2019-02-05T10:44:05.224Z,21.10
2019-02-05T10:46:36.013Z,22.57
2019-02-05T10:49:06.848Z,21.40
2019-02-05T10:51:37.918Z,20.10
2019-02-05T10:54:08.611Z,23.23
2019-02-05T10:56:39.350Z,21.53
2019-02-05T10:59:10.162Z,14.40
2019-02-05T11:01:40.994Z,22.10
2019-02-05T11:04:12.985Z,21.53
2019-02-05T11:06:43.709Z,17.60
2019-02-05T11:09:14.388Z,21.30
2019-02-05T11:11:45.243Z,22.60
2019-02-05T11:14:16.091Z,21.70
2019-02-05T11:16:46.814Z,20.80
2019-02-05T11:19:17.955Z,21.03
2019-02-05T11:21:48.723Z,21.33
2019-02-05T11:24:19.580Z,20.30
2019-02-05T11:26:50.273Z,18.53
2019-02-05T11:29:20.897Z,22.40
2019-02-05T11:31:51.658Z,19.60
2019-02-05T11:34:22.797Z,20.67
2019-02-05T11:36:53.503Z,21.07
2019-02-05T11:39:24.517Z,21.80
2019-02-05T11:41:55.513Z,21.87
2019-02-05T11:44:26.335Z,19.40
2019-02-05T11:46:57.059Z,20.43
2019-02-05T11:49:28.033Z,22.10
2019-02-05T11:51:58.850Z,18.20
2019-02-05T11:54:30.186Z,19.27
2019-02-05T11:57:00.846Z,18.67
2019-02-05T11:59:32.505Z,19.07
2019-02-05T12:02:03.421Z,21.17
2019-02-05T12:04:34.199Z,19.80
2019-02-05T12:07:05.148Z,21.60
2019-02-05T12:09:36.240Z,20.77
2019-02-05T12:12:07.310Z,20.20
2019-02-05T12:14:38.134Z,21.47
2019-02-05T12:17:08.831Z,19.10
2019-02-05T12:19:39.674Z,19.63
2019-02-05T12:22:10.439Z,20.90
2019-02-05T12:24:41.077Z,19.77
2019-02-05T12:27:11.795Z,18.57
2019-02-05T12:29:42.424Z,18.70
2019-02-05T12:32:13.264Z,19.80
2019-02-05T12:34:43.940Z,18.67
2019-02-05T12:37:14.602Z,19.80
2019-02-05T12:39:45.266Z,21.43
2019-02-05T12:42:15.994Z,18.87
2019-02-05T12:44:46.753Z,18.73
2019-02-05T12:47:17.915Z,17.63
2019-02-05T12:49:48.648Z,19.20
2019-02-05T12:52:19.420Z,17.57
2019-02-05T12:54:50.059Z,20.50
2019-02-05T12:57:20.740Z,19.67
2019-02-05T12:59:51.802Z,18.03
2019-02-05T13:02:22.747Z,19.67
2019-02-05T13:04:53.444Z,19.27
2019-02-05T13:07:24.218Z,20.03
2019-02-05T13:09:54.877Z,17.55
2019-02-05T13:12:25.637Z,19.00
2019-02-05T13:14:56.959Z,18.53
2019-02-05T13:17:27.697Z,17.97
2019-02-05T13:19:58.483Z,19.57
2019-02-05T13:22:29.492Z,18.07
2019-02-05T13:25:00.076Z,17.70
2019-02-05T13:27:31.341Z,19.60
2019-02-05T13:30:03.151Z,19.00
2019-02-05T13:32:35.666Z,19.57
2019-02-05T13:35:07.989Z,17.63
2019-02-05T13:37:38.868Z,18.33
2019-02-05T13:40:12.595Z,18.20
2019-02-05T13:42:43.291Z,19.60
2019-02-05T13:45:14.549Z,18.47
2019-02-05T13:47:45.188Z,17.77
2019-02-05T13:50:32.136Z,19.50
2019-02-05T13:52:54.103Z,18.03
2019-02-05T13:55:27.213Z,19.87
2019-02-05T13:57:58.057Z,17.37
2019-02-05T14:00:40.299Z,20.37
2019-02-05T14:03:11.534Z,18.50
2019-02-05T14:05:42.550Z,17.20
2019-02-05T14:08:13.255Z,16.87
2019-02-05T14:10:45.084Z,18.10
2019-02-05T14:13:15.744Z,18.60
2019-02-05T14:15:48.578Z,19.10
2019-02-05T14:18:21.956Z,15.40
2019-02-05T14:20:51.566Z,19.63
2019-02-05T14:23:22.381Z,19.10
2019-02-05T14:25:53.113Z,18.33
2019-02-05T14:28:23.768Z,18.10
2019-02-05T14:30:58.045Z,18.40
2019-02-05T14:33:30.812Z,16.87
2019-02-05T14:36:01.657Z,20.00
2019-02-05T14:38:32.319Z,19.47
2019-02-05T14:41:03.062Z,19.07
2019-02-05T14:43:33.644Z,19.50
2019-02-05T14:46:04.814Z,20.00
2019-02-05T14:48:35.629Z,18.93
2019-02-05T14:51:06.645Z,18.77
2019-02-05T14:53:37.436Z,19.23
2019-02-05T14:56:08.101Z,21.10
2019-02-05T14:58:38.834Z,21.77
2019-02-05T15:01:09.722Z,18.73
2019-02-05T15:03:40.406Z,18.93
2019-02-05T15:06:11.129Z,19.53
2019-02-05T15:08:42.067Z,20.63
2019-02-05T15:11:12.733Z,21.47
2019-02-05T15:13:43.486Z,18.47
2019-02-05T15:16:14.352Z,17.90
2019-02-05T15:18:45.268Z,20.90
2019-02-05T15:21:16.167Z,20.03
2019-02-05T15:23:46.815Z,20.97
2019-02-05T15:26:17.858Z,21.13
2019-02-05T15:28:48.578Z,20.33
2019-02-05T15:31:20.346Z,18.83
2019-02-05T15:33:59.701Z,17.83
2019-02-05T15:36:42.505Z,19.53
2019-02-05T15:39:14.836Z,17.83
2019-02-05T15:41:45.715Z,18.07
2019-02-05T15:44:17.094Z,17.43
2019-02-05T15:46:47.830Z,19.07
2019-02-05T15:49:18.566Z,17.70
2019-02-05T15:51:49.176Z,23.13
2019-02-05T15:54:19.979Z,11.57
2019-02-05T15:56:51.036Z,20.57
2019-02-05T15:59:21.797Z,20.30
2019-02-05T16:01:52.485Z,19.70
2019-02-05T16:04:23.054Z,16.00
2019-02-05T16:06:53.714Z,18.23
2019-02-05T16:09:24.473Z,14.17
2019-02-05T16:11:55.172Z,22.50
2019-02-05T16:14:25.772Z,13.70
2019-02-05T16:16:56.664Z,19.63
2019-02-05T16:19:27.253Z,20.87
2019-02-05T16:21:58.020Z,19.67
2019-02-05T16:24:29.215Z,18.20
2019-02-05T16:26:59.968Z,22.00
2019-02-05T16:29:30.682Z,21.37
2019-02-05T16:32:01.327Z,20.20
2019-02-05T16:34:32.021Z,18.53
2019-02-05T16:37:02.876Z,17.97
2019-02-05T16:39:33.647Z,21.47
2019-02-05T16:42:04.456Z,21.23
2019-02-05T16:44:35.315Z,19.30
2019-02-05T16:47:05.892Z,19.73
2019-02-05T16:49:36.552Z,19.07
2019-02-05T16:52:07.681Z,20.20
2019-02-05T16:54:38.315Z,19.97
2019-02-05T16:57:08.955Z,18.83
2019-02-05T16:59:39.531Z,20.73
2019-02-05T17:02:10.173Z,17.63
2019-02-05T17:04:40.866Z,19.97
2019-02-05T17:07:11.532Z,18.27
2019-02-05T17:09:42.298Z,19.00
2019-02-05T17:12:12.950Z,18.30
2019-02-05T17:14:43.648Z,18.77
2019-02-05T17:17:14.647Z,17.87
2019-02-05T17:19:45.450Z,14.87
2019-02-05T17:22:16.143Z,20.30
2019-02-05T17:24:46.727Z,22.83
2019-02-05T17:27:17.484Z,20.27
2019-02-05T17:29:50.139Z,21.70
2019-02-05T17:32:20.628Z,20.03
2019-02-05T17:34:51.323Z,23.33
2019-02-05T17:37:21.922Z,20.97
2019-02-05T17:39:52.946Z,22.03
2019-02-05T17:42:23.633Z,20.63
2019-02-05T17:44:54.671Z,22.33
2019-02-05T17:47:25.265Z,24.03
2019-02-05T17:49:56.094Z,22.30
2019-02-05T17:52:26.816Z,19.97
2019-02-05T17:54:57.553Z,22.27
2019-02-05T17:57:28.100Z,20.70
2019-02-05T17:59:58.971Z,22.27
2019-02-05T18:02:29.633Z,20.97
2019-02-05T18:05:00.493Z,21.17
2019-02-05T18:07:31.299Z,19.57
2019-02-05T18:10:02.028Z,20.87
2019-02-05T18:12:34.379Z,22.63
2019-02-05T18:15:05.874Z,16.33
2019-02-05T18:17:36.591Z,19.83
2019-02-05T18:20:08.067Z,19.83
2019-02-05T18:22:38.854Z,17.47
2019-02-05T18:25:11.477Z,21.70
2019-02-05T18:27:42.260Z,22.80
2019-02-05T18:30:25.173Z,21.53
2019-02-05T18:33:03.342Z,22.70
2019-02-05T18:35:29.195Z,23.33
2019-02-05T18:37:59.999Z,22.83
2019-02-05T18:40:30.720Z,23.77
2019-02-05T18:43:01.600Z,23.70
2019-02-05T18:45:32.747Z,22.03
2019-02-05T18:48:03.355Z,17.83
2019-02-05T18:50:33.991Z,24.73
2019-02-05T18:53:04.989Z,22.37
2019-02-05T18:55:36.337Z,21.10
2019-02-05T18:58:09.707Z,23.90
2019-02-05T19:00:41.430Z,21.53
2019-02-05T19:03:16.274Z,18.97
2019-02-05T19:05:44.345Z,20.93
2019-02-05T19:08:16.476Z,20.73
2019-02-05T19:10:47.463Z,23.03
2019-02-05T19:13:18.452Z,19.50
2019-02-05T19:15:49.552Z,21.60
2019-02-05T19:18:20.226Z,21.93
2019-02-05T19:20:51.029Z,24.20
2019-02-05T19:23:21.766Z,19.73
2019-02-05T19:26:04.234Z,21.33
2019-02-05T19:28:39.409Z,24.97
2019-02-05T19:31:29.029Z,22.50
2019-02-05T19:33:59.831Z,23.83
2019-02-05T19:36:31.010Z,19.97
2019-02-05T19:39:01.802Z,24.17
2019-02-05T19:41:34.210Z,24.40
2019-02-05T19:44:05.048Z,24.30
2019-02-05T19:46:50.159Z,23.10
2019-02-05T19:49:23.721Z,26.77
2019-02-05T19:51:54.395Z,24.17
2019-02-05T19:54:25.228Z,23.33
2019-02-05T19:56:55.799Z,24.13
2019-02-05T19:59:26.980Z,22.43
2019-02-05T20:01:57.743Z,23.70
2019-02-05T20:04:28.950Z,21.37
2019-02-05T20:06:59.582Z,22.00
2019-02-05T20:09:30.144Z,22.77
2019-02-05T20:12:01.547Z,24.97
2019-02-05T20:14:32.354Z,24.23
2019-02-05T20:17:03.580Z,25.47
2019-02-05T20:19:34.268Z,20.93
2019-02-05T20:22:04.999Z,23.23
2019-02-05T20:24:35.680Z,23.93
2019-02-05T20:27:06.503Z,22.53
2019-02-05T20:29:37.966Z,24.17
2019-02-05T20:32:09.000Z,24.97
2019-02-05T20:34:40.050Z,24.03
2019-02-05T20:37:10.655Z,25.67
2019-02-05T20:39:42.414Z,21.43
2019-02-05T20:42:13.081Z,22.60
2019-02-05T20:44:43.636Z,24.37
2019-02-05T20:47:14.456Z,24.13
2019-02-05T20:49:45.433Z,24.23
2019-02-05T20:52:16.006Z,20.23
2019-02-05T20:54:47.043Z,23.60
2019-02-05T20:57:17.670Z,25.43
2019-02-05T20:59:48.458Z,24.03
2019-02-05T21:02:19.115Z,22.17
2019-02-05T21:04:49.891Z,24.00
2019-02-05T21:07:20.628Z,23.50
2019-02-05T21:09:51.381Z,27.17
2019-02-05T21:12:22.148Z,22.70
2019-02-05T21:14:52.974Z,23.47
2019-02-05T21:17:23.668Z,23.80
2019-02-05T21:19:54.365Z,22.30
2019-02-05T21:22:28.758Z,25.80
2019-02-05T21:24:59.812Z,20.60
2019-02-05T21:27:30.352Z,32.03
2019-02-05T21:30:20.671Z,25.03
2019-02-05T21:33:14.308Z,22.00
2019-02-05T21:35:45.413Z,25.13
2019-02-05T21:38:16.865Z,21.60
2019-02-05T21:40:48.667Z,20.47
2019-02-05T21:43:22.429Z,20.93
2019-02-05T21:45:53.229Z,23.97
2019-02-05T21:48:24.713Z,21.27
2019-02-05T21:50:57.058Z,23.37
2019-02-05T21:53:28.529Z,25.80
2019-02-05T21:56:00.421Z,22.37
2019-02-05T21:58:31.243Z,22.47
2019-02-05T22:01:03.035Z,22.67
2019-02-05T22:03:34.354Z,21.63
2019-02-05T22:06:06.027Z,23.37
2019-02-05T22:08:36.656Z,20.63
2019-02-05T22:11:07.336Z,21.30
2019-02-05T22:13:38.224Z,21.63
2019-02-05T22:16:08.991Z,19.87
2019-02-05T22:18:40.107Z,20.73
2019-02-05T22:21:11.099Z,22.30
2019-02-05T22:23:41.783Z,22.57
2019-02-05T22:26:12.550Z,21.10
2019-02-05T22:28:43.122Z,21.67
2019-02-05T22:31:13.804Z,22.97
2019-02-05T22:33:44.646Z,23.40
2019-02-05T22:36:15.753Z,22.70
2019-02-05T22:38:46.789Z,22.20
2019-02-05T22:41:17.772Z,22.43
2019-02-05T22:43:48.412Z,24.87
2019-02-05T22:46:19.191Z,22.50
2019-02-05T22:48:50.019Z,22.20
2019-02-05T22:51:20.896Z,21.37
2019-02-05T22:53:51.691Z,22.27
2019-02-05T22:56:22.719Z,24.43
2019-02-05T22:58:53.651Z,23.07
2019-02-05T23:01:50.366Z,18.20
2019-02-05T23:05:12.612Z,22.23
2019-02-05T23:07:43.427Z,22.83
2019-02-05T23:10:40.187Z,13.63
2019-02-05T23:13:19.082Z,17.47
2019-02-05T23:15:51.140Z,22.13
2019-02-05T23:18:22.008Z,16.60
2019-02-05T23:20:53.984Z,24.10
2019-02-05T23:23:25.177Z,22.83
2019-02-05T23:25:55.910Z,22.83
2019-02-05T23:28:27.792Z,21.40
2019-02-05T23:30:58.712Z,21.17
2019-02-05T23:33:29.412Z,25.73
2019-02-05T23:36:00.151Z,22.67
2019-02-05T23:38:30.881Z,20.73
2019-02-05T23:41:01.673Z,19.73
2019-02-05T23:43:32.582Z,20.90
2019-02-05T23:46:03.185Z,19.77
2019-02-05T23:48:33.933Z,24.80
2019-02-05T23:51:04.656Z,25.37
2019-02-05T23:53:35.419Z,21.43
2019-02-05T23:56:06.868Z,19.63
2019-02-05T23:58:37.676Z,21.33
